sensor_id;sensor_type;location;lat;lon;timestamp;P1;durP1;ratioP1;P2;durP2;ratioP2
39434;SDS011;66825;51.880;-0.518;2023-08-30T00:00:45;1.67;;;1.40;;
39434;SDS011;66825;51.880;-0.518;2023-08-30T00:03:11;1.60;;;1.30;;
39434;SDS011;66825;51.880;-0.518;2023-08-30T00:05:40;1.40;;;1.30;;
39434;SDS011;66825;51.880;-0.518;2023-08-30T00:08:07;1.33;;;1.10;;
39434;SDS011;66825;51.880;-0.518;2023-08-30T00:10:34;1.40;;;1.10;;
39434;SDS011;66825;51.880;-0.518;2023-08-30T00:13:00;1.40;;;1.20;;
39434;SDS011;66825;51.880;-0.518;2023-08-30T00:15:25;1.40;;;1.30;;
39434;SDS011;66825;51.880;-0.518;2023-08-30T00:17:51;1.60;;;1.20;;
39434;SDS011;66825;51.880;-0.518;2023-08-30T00:20:17;1.20;;;1.10;;
39434;SDS011;66825;51.880;-0.518;2023-08-30T00:22:43;1.30;;;1.20;;
39434;SDS011;66825;51.880;-0.518;2023-08-30T00:25:08;1.23;;;1.10;;
39434;SDS011;66825;51.880;-0.518;2023-08-30T00:27:34;1.70;;;1.40;;
39434;SDS011;66825;51.880;-0.518;2023-08-30T00:29:59;1.40;;;1.10;;
39434;SDS011;66825;51.880;-0.518;2023-08-30T00:32:25;1.50;;;1.10;;
39434;SDS011;66825;51.880;-0.518;2023-08-30T00:34:50;1.17;;;1.08;;
39434;SDS011;66825;51.880;-0.518;2023-08-30T00:37:19;1.30;;;1.20;;
39434;SDS011;66825;51.880;-0.518;2023-08-30T00:39:44;1.38;;;1.27;;
39434;SDS011;66825;51.880;-0.518;2023-08-30T00:42:10;1.40;;;1.30;;
39434;SDS011;66825;51.880;-0.518;2023-08-30T00:44:35;1.42;;;1.20;;
39434;SDS011;66825;51.880;-0.518;2023-08-30T00:47:01;1.30;;;1.20;;
39434;SDS011;66825;51.880;-0.518;2023-08-30T00:49:28;1.20;;;1.10;;
39434;SDS011;66825;51.880;-0.518;2023-08-30T00:51:54;1.30;;;1.20;;
39434;SDS011;66825;51.880;-0.518;2023-08-30T00:54:21;1.10;;;1.00;;
39434;SDS011;66825;51.880;-0.518;2023-08-30T00:56:46;1.38;;;1.20;;
39434;SDS011;66825;51.880;-0.518;2023-08-30T00:59:12;1.60;;;1.10;;
39434;SDS011;66825;51.880;-0.518;2023-08-30T01:01:38;1.50;;;1.20;;
39434;SDS011;66825;51.880;-0.518;2023-08-30T01:04:06;1.25;;;1.15;;
39434;SDS011;66825;51.880;-0.518;2023-08-30T01:06:32;1.20;;;1.10;;
39434;SDS011;66825;51.880;-0.518;2023-08-30T01:09:00;1.27;;;1.17;;
39434;SDS011;66825;51.880;-0.518;2023-08-30T01:11:32;1.15;;;0.90;;
39434;SDS011;66825;51.880;-0.518;2023-08-30T01:14:08;1.60;;;1.50;;
39434;SDS011;66825;51.880;-0.518;2023-08-30T01:16:37;1.70;;;1.30;;
39434;SDS011;66825;51.880;-0.518;2023-08-30T01:22:01;1.38;;;1.10;;
39434;SDS011;66825;51.880;-0.518;2023-08-30T01:27:29;1.30;;;1.20;;
39434;SDS011;66825;51.880;-0.518;2023-08-30T01:29:57;1.40;;;1.20;;
39434;SDS011;66825;51.880;-0.518;2023-08-30T01:32:23;1.60;;;1.27;;
39434;SDS011;66825;51.880;-0.518;2023-08-30T01:34:51;1.40;;;1.08;;
39434;SDS011;66825;51.880;-0.518;2023-08-30T01:37:16;1.10;;;1.00;;
39434;SDS011;66825;51.880;-0.518;2023-08-30T01:39:43;1.38;;;1.17;;
39434;SDS011;66825;51.880;-0.518;2023-08-30T01:42:09;1.52;;;1.08;;
39434;SDS011;66825;51.880;-0.518;2023-08-30T01:44:35;1.42;;;1.10;;
39434;SDS011;66825;51.880;-0.518;2023-08-30T01:47:03;1.27;;;1.00;;
39434;SDS011;66825;51.880;-0.518;2023-08-30T01:49:29;1.60;;;1.10;;
39434;SDS011;66825;51.880;-0.518;2023-08-30T01:51:57;1.30;;;1.10;;
39434;SDS011;66825;51.880;-0.518;2023-08-30T01:54:23;1.33;;;1.15;;
39434;SDS011;66825;51.880;-0.518;2023-08-30T01:56:50;1.23;;;1.02;;
39434;SDS011;66825;51.880;-0.518;2023-08-30T01:59:15;1.20;;;1.10;;
39434;SDS011;66825;51.880;-0.518;2023-08-30T02:01:41;1.38;;;1.10;;
39434;SDS011;66825;51.880;-0.518;2023-08-30T02:04:07;1.45;;;1.23;;
39434;SDS011;66825;51.880;-0.518;2023-08-30T02:09:07;1.10;;;1.00;;
39434;SDS011;66825;51.880;-0.518;2023-08-30T02:11:38;1.10;;;1.00;;
39434;SDS011;66825;51.880;-0.518;2023-08-30T02:14:07;0.95;;;0.85;;
39434;SDS011;66825;51.880;-0.518;2023-08-30T02:16:36;1.17;;;1.08;;
39434;SDS011;66825;51.880;-0.518;2023-08-30T02:19:04;0.95;;;0.93;;
39434;SDS011;66825;51.880;-0.518;2023-08-30T02:21:31;1.15;;;1.02;;
39434;SDS011;66825;51.880;-0.518;2023-08-30T02:23:57;1.35;;;1.10;;
39434;SDS011;66825;51.880;-0.518;2023-08-30T02:26:22;1.10;;;1.00;;
39434;SDS011;66825;51.880;-0.518;2023-08-30T02:28:48;1.15;;;1.02;;
39434;SDS011;66825;51.880;-0.518;2023-08-30T02:31:13;1.30;;;1.20;;
39434;SDS011;66825;51.880;-0.518;2023-08-30T02:33:38;1.00;;;0.80;;
39434;SDS011;66825;51.880;-0.518;2023-08-30T02:36:04;1.27;;;1.13;;
39434;SDS011;66825;51.880;-0.518;2023-08-30T02:38:30;1.27;;;1.10;;
39434;SDS011;66825;51.880;-0.518;2023-08-30T02:40:55;1.00;;;0.90;;
39434;SDS011;66825;51.880;-0.518;2023-08-30T02:43:21;1.20;;;1.10;;
39434;SDS011;66825;51.880;-0.518;2023-08-30T02:45:47;1.10;;;1.00;;
39434;SDS011;66825;51.880;-0.518;2023-08-30T02:48:13;1.25;;;1.00;;
39434;SDS011;66825;51.880;-0.518;2023-08-30T02:50:41;1.27;;;1.10;;
39434;SDS011;66825;51.880;-0.518;2023-08-30T02:53:07;1.30;;;1.15;;
39434;SDS011;66825;51.880;-0.518;2023-08-30T02:55:35;1.10;;;1.00;;
39434;SDS011;66825;51.880;-0.518;2023-08-30T02:58:01;1.08;;;0.88;;
39434;SDS011;66825;51.880;-0.518;2023-08-30T03:00:26;1.20;;;1.05;;
39434;SDS011;66825;51.880;-0.518;2023-08-30T03:02:52;1.02;;;0.93;;
39434;SDS011;66825;51.880;-0.518;2023-08-30T03:05:17;1.17;;;1.08;;
39434;SDS011;66825;51.880;-0.518;2023-08-30T03:07:44;1.30;;;1.17;;
39434;SDS011;66825;51.880;-0.518;2023-08-30T03:10:10;1.10;;;1.00;;
39434;SDS011;66825;51.880;-0.518;2023-08-30T03:12:37;1.38;;;1.02;;
39434;SDS011;66825;51.880;-0.518;2023-08-30T03:15:03;1.30;;;1.15;;
39434;SDS011;66825;51.880;-0.518;2023-08-30T03:17:30;1.17;;;1.08;;
39434;SDS011;66825;51.880;-0.518;2023-08-30T03:19:56;1.10;;;0.93;;
39434;SDS011;66825;51.880;-0.518;2023-08-30T03:22:21;1.27;;;1.05;;
39434;SDS011;66825;51.880;-0.518;2023-08-30T03:24:47;1.25;;;1.15;;
39434;SDS011;66825;51.880;-0.518;2023-08-30T03:27:14;1.20;;;1.10;;
39434;SDS011;66825;51.880;-0.518;2023-08-30T03:29:40;1.10;;;1.00;;
39434;SDS011;66825;51.880;-0.518;2023-08-30T03:32:05;1.10;;;1.00;;
39434;SDS011;66825;51.880;-0.518;2023-08-30T03:34:31;1.10;;;1.00;;
39434;SDS011;66825;51.880;-0.518;2023-08-30T03:36:56;1.10;;;1.00;;
39434;SDS011;66825;51.880;-0.518;2023-08-30T03:39:22;1.20;;;1.00;;
39434;SDS011;66825;51.880;-0.518;2023-08-30T03:41:49;1.20;;;1.10;;
39434;SDS011;66825;51.880;-0.518;2023-08-30T03:44:14;1.20;;;0.98;;
39434;SDS011;66825;51.880;-0.518;2023-08-30T03:46:40;1.40;;;1.10;;
39434;SDS011;66825;51.880;-0.518;2023-08-30T03:49:05;1.20;;;1.10;;
39434;SDS011;66825;51.880;-0.518;2023-08-30T03:51:30;1.08;;;0.88;;
39434;SDS011;66825;51.880;-0.518;2023-08-30T03:53:56;1.40;;;1.20;;
39434;SDS011;66825;51.880;-0.518;2023-08-30T03:56:22;0.80;;;0.75;;
39434;SDS011;66825;51.880;-0.518;2023-08-30T03:58:48;1.10;;;1.00;;
39434;SDS011;66825;51.880;-0.518;2023-08-30T04:01:13;1.35;;;0.80;;
39434;SDS011;66825;51.880;-0.518;2023-08-30T04:03:39;1.42;;;0.98;;
39434;SDS011;66825;51.880;-0.518;2023-08-30T04:06:05;1.00;;;0.80;;
39434;SDS011;66825;51.880;-0.518;2023-08-30T04:08:30;1.25;;;1.15;;
39434;SDS011;66825;51.880;-0.518;2023-08-30T04:10:56;1.08;;;0.98;;
39434;SDS011;66825;51.880;-0.518;2023-08-30T04:13:22;1.23;;;1.13;;
39434;SDS011;66825;51.880;-0.518;2023-08-30T04:15:47;1.00;;;0.90;;
39434;SDS011;66825;51.880;-0.518;2023-08-30T04:18:13;1.17;;;1.00;;
39434;SDS011;66825;51.880;-0.518;2023-08-30T04:20:42;1.20;;;1.00;;
39434;SDS011;66825;51.880;-0.518;2023-08-30T04:25:34;1.10;;;1.00;;
39434;SDS011;66825;51.880;-0.518;2023-08-30T04:28:00;1.13;;;0.93;;
39434;SDS011;66825;51.880;-0.518;2023-08-30T04:30:25;0.80;;;0.80;;
39434;SDS011;66825;51.880;-0.518;2023-08-30T04:32:51;1.10;;;1.00;;
39434;SDS011;66825;51.880;-0.518;2023-08-30T04:35:16;1.08;;;0.95;;
39434;SDS011;66825;51.880;-0.518;2023-08-30T04:37:42;1.10;;;1.00;;
39434;SDS011;66825;51.880;-0.518;2023-08-30T04:40:08;1.20;;;1.10;;
39434;SDS011;66825;51.880;-0.518;2023-08-30T04:42:34;0.98;;;0.85;;
39434;SDS011;66825;51.880;-0.518;2023-08-30T04:45:01;1.55;;;1.27;;
39434;SDS011;66825;51.880;-0.518;2023-08-30T04:47:28;1.27;;;1.13;;
39434;SDS011;66825;51.880;-0.518;2023-08-30T04:49:55;1.10;;;0.98;;
39434;SDS011;66825;51.880;-0.518;2023-08-30T04:52:20;1.00;;;0.90;;
39434;SDS011;66825;51.880;-0.518;2023-08-30T04:54:46;1.05;;;0.90;;
39434;SDS011;66825;51.880;-0.518;2023-08-30T04:57:12;1.00;;;0.90;;
39434;SDS011;66825;51.880;-0.518;2023-08-30T04:59:41;1.07;;;0.97;;
39434;SDS011;66825;51.880;-0.518;2023-08-30T05:02:08;1.42;;;1.08;;
39434;SDS011;66825;51.880;-0.518;2023-08-30T05:04:33;1.10;;;1.00;;
39434;SDS011;66825;51.880;-0.518;2023-08-30T05:06:59;1.23;;;1.00;;
39434;SDS011;66825;51.880;-0.518;2023-08-30T05:09:24;0.80;;;0.80;;
39434;SDS011;66825;51.880;-0.518;2023-08-30T05:11:50;1.00;;;0.90;;
39434;SDS011;66825;51.880;-0.518;2023-08-30T05:14:16;1.30;;;1.00;;
39434;SDS011;66825;51.880;-0.518;2023-08-30T05:16:42;1.20;;;1.00;;
39434;SDS011;66825;51.880;-0.518;2023-08-30T05:19:07;1.00;;;0.90;;
39434;SDS011;66825;51.880;-0.518;2023-08-30T05:21:33;1.00;;;0.80;;
39434;SDS011;66825;51.880;-0.518;2023-08-30T05:23:58;1.00;;;0.90;;
39434;SDS011;66825;51.880;-0.518;2023-08-30T05:26:24;1.27;;;0.93;;
39434;SDS011;66825;51.880;-0.518;2023-08-30T05:28:49;1.08;;;0.90;;
39434;SDS011;66825;51.880;-0.518;2023-08-30T05:31:14;0.80;;;0.80;;
39434;SDS011;66825;51.880;-0.518;2023-08-30T05:33:40;1.40;;;1.10;;
39434;SDS011;66825;51.880;-0.518;2023-08-30T05:36:05;1.10;;;0.93;;
39434;SDS011;66825;51.880;-0.518;2023-08-30T05:38:31;1.25;;;1.00;;
39434;SDS011;66825;51.880;-0.518;2023-08-30T05:40:56;1.10;;;0.88;;
39434;SDS011;66825;51.880;-0.518;2023-08-30T05:43:22;1.02;;;0.80;;
39434;SDS011;66825;51.880;-0.518;2023-08-30T05:45:47;1.20;;;1.00;;
39434;SDS011;66825;51.880;-0.518;2023-08-30T05:48:12;1.05;;;0.90;;
39434;SDS011;66825;51.880;-0.518;2023-08-30T05:50:38;1.08;;;0.90;;
39434;SDS011;66825;51.880;-0.518;2023-08-30T05:53:04;1.00;;;0.80;;
39434;SDS011;66825;51.880;-0.518;2023-08-30T05:55:30;0.90;;;0.80;;
39434;SDS011;66825;51.880;-0.518;2023-08-30T05:57:55;1.27;;;1.00;;
39434;SDS011;66825;51.880;-0.518;2023-08-30T06:00:21;1.10;;;0.90;;
39434;SDS011;66825;51.880;-0.518;2023-08-30T06:02:47;1.10;;;0.82;;
39434;SDS011;66825;51.880;-0.518;2023-08-30T06:05:13;1.63;;;0.93;;
39434;SDS011;66825;51.880;-0.518;2023-08-30T06:07:38;1.17;;;1.00;;
39434;SDS011;66825;51.880;-0.518;2023-08-30T06:10:04;1.48;;;1.00;;
39434;SDS011;66825;51.880;-0.518;2023-08-30T06:12:29;1.20;;;0.85;;
39434;SDS011;66825;51.880;-0.518;2023-08-30T06:14:55;0.85;;;0.80;;
39434;SDS011;66825;51.880;-0.518;2023-08-30T06:17:21;1.38;;;1.02;;
39434;SDS011;66825;51.880;-0.518;2023-08-30T06:19:46;1.25;;;1.10;;
39434;SDS011;66825;51.880;-0.518;2023-08-30T06:22:13;1.13;;;0.93;;
39434;SDS011;66825;51.880;-0.518;2023-08-30T06:24:38;1.48;;;1.20;;
39434;SDS011;66825;51.880;-0.518;2023-08-30T06:27:04;1.25;;;0.90;;
39434;SDS011;66825;51.880;-0.518;2023-08-30T06:29:30;1.38;;;1.00;;
39434;SDS011;66825;51.880;-0.518;2023-08-30T06:31:55;0.80;;;0.80;;
39434;SDS011;66825;51.880;-0.518;2023-08-30T06:34:21;1.30;;;1.10;;
39434;SDS011;66825;51.880;-0.518;2023-08-30T06:36:47;5.20;;;1.50;;
39434;SDS011;66825;51.880;-0.518;2023-08-30T06:39:13;5.32;;;2.03;;
39434;SDS011;66825;51.880;-0.518;2023-08-30T06:41:38;5.32;;;1.70;;
39434;SDS011;66825;51.880;-0.518;2023-08-30T06:44:04;7.50;;;2.00;;
39434;SDS011;66825;51.880;-0.518;2023-08-30T06:46:29;6.10;;;1.92;;
39434;SDS011;66825;51.880;-0.518;2023-08-30T06:48:55;4.97;;;2.03;;
39434;SDS011;66825;51.880;-0.518;2023-08-30T06:51:20;6.20;;;1.88;;
39434;SDS011;66825;51.880;-0.518;2023-08-30T06:53:46;5.35;;;1.88;;
39434;SDS011;66825;51.880;-0.518;2023-08-30T06:56:12;5.25;;;2.00;;
39434;SDS011;66825;51.880;-0.518;2023-08-30T06:58:37;4.25;;;1.67;;
39434;SDS011;66825;51.880;-0.518;2023-08-30T07:01:03;6.40;;;2.20;;
39434;SDS011;66825;51.880;-0.518;2023-08-30T07:03:28;5.75;;;1.92;;
39434;SDS011;66825;51.880;-0.518;2023-08-30T07:05:54;5.30;;;1.98;;
39434;SDS011;66825;51.880;-0.518;2023-08-30T07:08:19;7.63;;;2.22;;
39434;SDS011;66825;51.880;-0.518;2023-08-30T07:10:45;5.80;;;2.38;;
39434;SDS011;66825;51.880;-0.518;2023-08-30T07:13:10;5.30;;;2.10;;
39434;SDS011;66825;51.880;-0.518;2023-08-30T07:15:39;5.07;;;2.20;;
39434;SDS011;66825;51.880;-0.518;2023-08-30T07:18:06;7.88;;;2.42;;
39434;SDS011;66825;51.880;-0.518;2023-08-30T07:20:33;4.32;;;2.22;;
39434;SDS011;66825;51.880;-0.518;2023-08-30T07:23:00;6.47;;;2.10;;
39434;SDS011;66825;51.880;-0.518;2023-08-30T07:25:26;5.40;;;2.03;;
39434;SDS011;66825;51.880;-0.518;2023-08-30T07:27:51;5.80;;;2.03;;
39434;SDS011;66825;51.880;-0.518;2023-08-30T07:30:17;5.13;;;2.28;;
39434;SDS011;66825;51.880;-0.518;2023-08-30T07:32:43;4.90;;;1.90;;
39434;SDS011;66825;51.880;-0.518;2023-08-30T07:35:08;5.40;;;2.50;;
39434;SDS011;66825;51.880;-0.518;2023-08-30T07:37:35;4.47;;;1.90;;
39434;SDS011;66825;51.880;-0.518;2023-08-30T07:40:00;4.72;;;2.08;;
39434;SDS011;66825;51.880;-0.518;2023-08-30T07:42:29;5.00;;;1.98;;
39434;SDS011;66825;51.880;-0.518;2023-08-30T07:44:55;5.22;;;1.85;;
39434;SDS011;66825;51.880;-0.518;2023-08-30T07:47:20;4.53;;;2.08;;
39434;SDS011;66825;51.880;-0.518;2023-08-30T07:49:46;5.10;;;2.15;;
39434;SDS011;66825;51.880;-0.518;2023-08-30T07:52:11;5.18;;;2.22;;
39434;SDS011;66825;51.880;-0.518;2023-08-30T07:54:39;5.38;;;2.10;;
39434;SDS011;66825;51.880;-0.518;2023-08-30T07:57:05;4.47;;;1.95;;
39434;SDS011;66825;51.880;-0.518;2023-08-30T07:59:37;6.45;;;2.00;;
39434;SDS011;66825;51.880;-0.518;2023-08-30T08:02:03;7.82;;;2.20;;
39434;SDS011;66825;51.880;-0.518;2023-08-30T08:04:31;5.80;;;2.00;;
39434;SDS011;66825;51.880;-0.518;2023-08-30T08:06:57;5.82;;;2.10;;
39434;SDS011;66825;51.880;-0.518;2023-08-30T08:09:22;5.03;;;1.80;;
39434;SDS011;66825;51.880;-0.518;2023-08-30T08:11:48;4.30;;;1.95;;
39434;SDS011;66825;51.880;-0.518;2023-08-30T08:14:14;6.30;;;2.03;;
39434;SDS011;66825;51.880;-0.518;2023-08-30T08:16:40;4.50;;;1.83;;
39434;SDS011;66825;51.880;-0.518;2023-08-30T08:19:06;4.63;;;2.10;;
39434;SDS011;66825;51.880;-0.518;2023-08-30T08:21:32;4.70;;;2.30;;
39434;SDS011;66825;51.880;-0.518;2023-08-30T08:23:58;6.32;;;2.33;;
39434;SDS011;66825;51.880;-0.518;2023-08-30T08:26:24;4.32;;;2.20;;
39434;SDS011;66825;51.880;-0.518;2023-08-30T08:28:50;7.55;;;2.70;;
39434;SDS011;66825;51.880;-0.518;2023-08-30T08:31:15;4.88;;;2.30;;
39434;SDS011;66825;51.880;-0.518;2023-08-30T08:33:41;5.63;;;2.35;;
39434;SDS011;66825;51.880;-0.518;2023-08-30T08:36:06;5.65;;;2.47;;
39434;SDS011;66825;51.880;-0.518;2023-08-30T08:38:32;7.10;;;2.45;;
39434;SDS011;66825;51.880;-0.518;2023-08-30T08:41:01;3.83;;;2.33;;
39434;SDS011;66825;51.880;-0.518;2023-08-30T08:43:29;6.38;;;2.55;;
39434;SDS011;66825;51.880;-0.518;2023-08-30T08:45:59;5.30;;;2.33;;
39434;SDS011;66825;51.880;-0.518;2023-08-30T08:48:25;4.97;;;2.25;;
39434;SDS011;66825;51.880;-0.518;2023-08-30T08:50:53;5.95;;;2.15;;
39434;SDS011;66825;51.880;-0.518;2023-08-30T08:53:20;5.53;;;1.75;;
39434;SDS011;66825;51.880;-0.518;2023-08-30T08:55:46;6.53;;;1.50;;
39434;SDS011;66825;51.880;-0.518;2023-08-30T08:58:12;3.33;;;1.50;;
39434;SDS011;66825;51.880;-0.518;2023-08-30T09:00:40;4.05;;;1.40;;
39434;SDS011;66825;51.880;-0.518;2023-08-30T09:03:08;2.67;;;1.13;;
39434;SDS011;66825;51.880;-0.518;2023-08-30T09:05:33;4.25;;;1.15;;
39434;SDS011;66825;51.880;-0.518;2023-08-30T09:08:02;3.65;;;1.30;;
39434;SDS011;66825;51.880;-0.518;2023-08-30T09:10:28;4.38;;;1.38;;
39434;SDS011;66825;51.880;-0.518;2023-08-30T09:12:54;4.35;;;1.30;;
39434;SDS011;66825;51.880;-0.518;2023-08-30T09:15:19;5.88;;;1.63;;
39434;SDS011;66825;51.880;-0.518;2023-08-30T09:17:44;4.45;;;1.50;;
39434;SDS011;66825;51.880;-0.518;2023-08-30T09:20:12;4.05;;;1.30;;
39434;SDS011;66825;51.880;-0.518;2023-08-30T09:22:41;3.05;;;1.33;;
39434;SDS011;66825;51.880;-0.518;2023-08-30T09:25:08;2.63;;;1.10;;
39434;SDS011;66825;51.880;-0.518;2023-08-30T09:27:34;5.30;;;1.52;;
39434;SDS011;66825;51.880;-0.518;2023-08-30T09:30:01;3.33;;;1.10;;
39434;SDS011;66825;51.880;-0.518;2023-08-30T09:32:29;4.88;;;1.60;;
39434;SDS011;66825;51.880;-0.518;2023-08-30T09:34:54;4.10;;;1.23;;
39434;SDS011;66825;51.880;-0.518;2023-08-30T09:37:23;4.78;;;1.40;;
39434;SDS011;66825;51.880;-0.518;2023-08-30T09:39:51;4.10;;;1.40;;
39434;SDS011;66825;51.880;-0.518;2023-08-30T09:42:17;4.38;;;1.20;;
39434;SDS011;66825;51.880;-0.518;2023-08-30T09:44:43;4.68;;;1.23;;
39434;SDS011;66825;51.880;-0.518;2023-08-30T09:47:09;3.97;;;1.20;;
39434;SDS011;66825;51.880;-0.518;2023-08-30T09:49:43;3.50;;;0.90;;
39434;SDS011;66825;51.880;-0.518;2023-08-30T09:52:10;3.42;;;1.20;;
39434;SDS011;66825;51.880;-0.518;2023-08-30T09:54:40;2.53;;;1.00;;
39434;SDS011;66825;51.880;-0.518;2023-08-30T09:57:09;5.05;;;1.05;;
39434;SDS011;66825;51.880;-0.518;2023-08-30T09:59:35;2.63;;;0.90;;
39434;SDS011;66825;51.880;-0.518;2023-08-30T10:02:00;2.20;;;0.90;;
39434;SDS011;66825;51.880;-0.518;2023-08-30T10:04:26;3.92;;;1.25;;
39434;SDS011;66825;51.880;-0.518;2023-08-30T10:06:53;3.80;;;1.10;;
39434;SDS011;66825;51.880;-0.518;2023-08-30T10:09:21;3.08;;;0.80;;
39434;SDS011;66825;51.880;-0.518;2023-08-30T10:11:47;2.95;;;0.90;;
39434;SDS011;66825;51.880;-0.518;2023-08-30T10:14:14;3.80;;;1.15;;
39434;SDS011;66825;51.880;-0.518;2023-08-30T10:16:43;4.20;;;1.00;;
39434;SDS011;66825;51.880;-0.518;2023-08-30T10:21:43;2.85;;;1.10;;
39434;SDS011;66825;51.880;-0.518;2023-08-30T10:24:09;3.15;;;1.00;;
39434;SDS011;66825;51.880;-0.518;2023-08-30T10:26:37;1.85;;;0.90;;
39434;SDS011;66825;51.880;-0.518;2023-08-30T10:29:06;3.60;;;1.10;;
39434;SDS011;66825;51.880;-0.518;2023-08-30T10:31:35;2.17;;;0.90;;
39434;SDS011;66825;51.880;-0.518;2023-08-30T10:34:11;4.57;;;1.02;;
39434;SDS011;66825;51.880;-0.518;2023-08-30T10:36:39;3.75;;;1.20;;
39434;SDS011;66825;51.880;-0.518;2023-08-30T10:39:10;3.20;;;1.15;;
39434;SDS011;66825;51.880;-0.518;2023-08-30T10:41:37;4.18;;;1.25;;
39434;SDS011;66825;51.880;-0.518;2023-08-30T10:44:03;5.82;;;1.40;;
39434;SDS011;66825;51.880;-0.518;2023-08-30T10:46:29;5.00;;;1.67;;
39434;SDS011;66825;51.880;-0.518;2023-08-30T10:48:56;3.65;;;1.20;;
39434;SDS011;66825;51.880;-0.518;2023-08-30T10:51:36;4.32;;;1.30;;
39434;SDS011;66825;51.880;-0.518;2023-08-30T10:54:14;4.32;;;1.27;;
39434;SDS011;66825;51.880;-0.518;2023-08-30T10:56:48;2.53;;;1.02;;
39434;SDS011;66825;51.880;-0.518;2023-08-30T10:59:19;2.85;;;1.00;;
39434;SDS011;66825;51.880;-0.518;2023-08-30T11:01:49;3.15;;;1.10;;
39434;SDS011;66825;51.880;-0.518;2023-08-30T11:04:19;3.60;;;1.13;;
39434;SDS011;66825;51.880;-0.518;2023-08-30T11:06:47;2.60;;;1.05;;
39434;SDS011;66825;51.880;-0.518;2023-08-30T11:09:15;2.33;;;0.93;;
39434;SDS011;66825;51.880;-0.518;2023-08-30T11:11:44;2.25;;;1.00;;
39434;SDS011;66825;51.880;-0.518;2023-08-30T11:14:11;2.92;;;0.90;;
39434;SDS011;66825;51.880;-0.518;2023-08-30T11:16:37;3.40;;;1.00;;
39434;SDS011;66825;51.880;-0.518;2023-08-30T11:19:04;3.10;;;1.15;;
39434;SDS011;66825;51.880;-0.518;2023-08-30T11:21:30;2.33;;;0.80;;
39434;SDS011;66825;51.880;-0.518;2023-08-30T11:23:57;2.35;;;0.90;;
39434;SDS011;66825;51.880;-0.518;2023-08-30T11:26:23;2.95;;;0.90;;
39434;SDS011;66825;51.880;-0.518;2023-08-30T11:28:48;2.13;;;0.70;;
39434;SDS011;66825;51.880;-0.518;2023-08-30T11:33:55;4.57;;;1.20;;
39434;SDS011;66825;51.880;-0.518;2023-08-30T11:36:23;6.80;;;1.70;;
39434;SDS011;66825;51.880;-0.518;2023-08-30T11:38:51;9.55;;;2.40;;
39434;SDS011;66825;51.880;-0.518;2023-08-30T11:41:17;4.22;;;1.50;;
39434;SDS011;66825;51.880;-0.518;2023-08-30T11:43:45;3.80;;;1.30;;
39434;SDS011;66825;51.880;-0.518;2023-08-30T11:46:10;3.75;;;1.30;;
39434;SDS011;66825;51.880;-0.518;2023-08-30T11:48:37;2.88;;;0.90;;
39434;SDS011;66825;51.880;-0.518;2023-08-30T11:51:05;5.10;;;1.35;;
39434;SDS011;66825;51.880;-0.518;2023-08-30T11:53:31;4.00;;;1.17;;
39434;SDS011;66825;51.880;-0.518;2023-08-30T11:55:57;6.47;;;1.60;;
39434;SDS011;66825;51.880;-0.518;2023-08-30T11:58:23;2.55;;;1.15;;
39434;SDS011;66825;51.880;-0.518;2023-08-30T12:00:49;2.22;;;0.90;;
39434;SDS011;66825;51.880;-0.518;2023-08-30T12:03:16;2.90;;;0.90;;
39434;SDS011;66825;51.880;-0.518;2023-08-30T12:05:45;3.38;;;0.93;;
39434;SDS011;66825;51.880;-0.518;2023-08-30T12:08:23;6.13;;;1.40;;
39434;SDS011;66825;51.880;-0.518;2023-08-30T12:10:49;2.58;;;1.17;;
39434;SDS011;66825;51.880;-0.518;2023-08-30T12:13:28;3.95;;;0.85;;
39434;SDS011;66825;51.880;-0.518;2023-08-30T12:15:57;3.65;;;0.93;;
39434;SDS011;66825;51.880;-0.518;2023-08-30T12:18:24;3.05;;;0.93;;
39434;SDS011;66825;51.880;-0.518;2023-08-30T12:20:59;1.92;;;0.80;;
39434;SDS011;66825;51.880;-0.518;2023-08-30T12:23:27;2.92;;;0.88;;
39434;SDS011;66825;51.880;-0.518;2023-08-30T12:28:24;2.50;;;0.82;;
39434;SDS011;66825;51.880;-0.518;2023-08-30T12:30:50;2.22;;;0.90;;
39434;SDS011;66825;51.880;-0.518;2023-08-30T12:33:16;1.80;;;0.90;;
39434;SDS011;66825;51.880;-0.518;2023-08-30T12:35:43;3.80;;;0.82;;
39434;SDS011;66825;51.880;-0.518;2023-08-30T12:38:08;3.83;;;1.00;;
39434;SDS011;66825;51.880;-0.518;2023-08-30T12:40:35;2.58;;;0.75;;
39434;SDS011;66825;51.880;-0.518;2023-08-30T12:43:01;1.73;;;0.70;;
39434;SDS011;66825;51.880;-0.518;2023-08-30T12:45:26;5.20;;;1.33;;
39434;SDS011;66825;51.880;-0.518;2023-08-30T12:47:52;4.43;;;1.10;;
39434;SDS011;66825;51.880;-0.518;2023-08-30T12:50:18;2.90;;;0.88;;
39434;SDS011;66825;51.880;-0.518;2023-08-30T12:52:43;6.32;;;1.23;;
39434;SDS011;66825;51.880;-0.518;2023-08-30T12:55:08;4.07;;;1.20;;
39434;SDS011;66825;51.880;-0.518;2023-08-30T12:57:34;4.32;;;1.33;;
39434;SDS011;66825;51.880;-0.518;2023-08-30T12:59:59;3.17;;;1.00;;
39434;SDS011;66825;51.880;-0.518;2023-08-30T13:02:25;3.92;;;1.00;;
39434;SDS011;66825;51.880;-0.518;2023-08-30T13:04:50;6.78;;;1.70;;
39434;SDS011;66825;51.880;-0.518;2023-08-30T13:07:16;4.68;;;1.45;;
39434;SDS011;66825;51.880;-0.518;2023-08-30T13:09:42;5.00;;;1.40;;
39434;SDS011;66825;51.880;-0.518;2023-08-30T13:12:07;4.38;;;1.15;;
39434;SDS011;66825;51.880;-0.518;2023-08-30T13:14:33;5.47;;;1.33;;
39434;SDS011;66825;51.880;-0.518;2023-08-30T13:16:58;7.35;;;1.20;;
39434;SDS011;66825;51.880;-0.518;2023-08-30T13:19:24;6.68;;;1.33;;
39434;SDS011;66825;51.880;-0.518;2023-08-30T13:21:49;7.45;;;1.65;;
39434;SDS011;66825;51.880;-0.518;2023-08-30T13:24:15;8.07;;;1.83;;
39434;SDS011;66825;51.880;-0.518;2023-08-30T13:26:41;4.78;;;1.52;;
39434;SDS011;66825;51.880;-0.518;2023-08-30T13:29:06;7.05;;;1.38;;
39434;SDS011;66825;51.880;-0.518;2023-08-30T13:31:32;5.82;;;1.20;;
39434;SDS011;66825;51.880;-0.518;2023-08-30T13:33:58;3.38;;;1.02;;
39434;SDS011;66825;51.880;-0.518;2023-08-30T13:36:24;4.65;;;1.30;;
39434;SDS011;66825;51.880;-0.518;2023-08-30T13:38:49;4.00;;;1.23;;
39434;SDS011;66825;51.880;-0.518;2023-08-30T13:41:15;6.00;;;1.50;;
39434;SDS011;66825;51.880;-0.518;2023-08-30T13:43:40;3.22;;;0.98;;
39434;SDS011;66825;51.880;-0.518;2023-08-30T13:46:06;2.30;;;1.00;;
39434;SDS011;66825;51.880;-0.518;2023-08-30T13:48:31;3.50;;;0.77;;
39434;SDS011;66825;51.880;-0.518;2023-08-30T13:50:57;1.48;;;0.60;;
39434;SDS011;66825;51.880;-0.518;2023-08-30T13:53:22;2.25;;;0.68;;
39434;SDS011;66825;51.880;-0.518;2023-08-30T13:55:49;2.70;;;0.80;;
39434;SDS011;66825;51.880;-0.518;2023-08-30T13:58:15;2.35;;;0.70;;
39434;SDS011;66825;51.880;-0.518;2023-08-30T14:00:41;3.10;;;0.98;;
39434;SDS011;66825;51.880;-0.518;2023-08-30T14:03:06;3.00;;;0.90;;
39434;SDS011;66825;51.880;-0.518;2023-08-30T14:05:33;2.42;;;0.82;;
39434;SDS011;66825;51.880;-0.518;2023-08-30T14:07:58;1.90;;;0.77;;
39434;SDS011;66825;51.880;-0.518;2023-08-30T14:10:24;3.38;;;0.90;;
39434;SDS011;66825;51.880;-0.518;2023-08-30T14:12:49;2.78;;;1.00;;
39434;SDS011;66825;51.880;-0.518;2023-08-30T14:15:15;3.53;;;0.90;;
39434;SDS011;66825;51.880;-0.518;2023-08-30T14:17:41;1.70;;;0.80;;
39434;SDS011;66825;51.880;-0.518;2023-08-30T14:20:07;5.18;;;1.08;;
39434;SDS011;66825;51.880;-0.518;2023-08-30T14:22:32;6.28;;;1.30;;
39434;SDS011;66825;51.880;-0.518;2023-08-30T14:24:58;3.92;;;1.05;;
39434;SDS011;66825;51.880;-0.518;2023-08-30T14:27:23;3.08;;;1.10;;
39434;SDS011;66825;51.880;-0.518;2023-08-30T14:29:49;2.88;;;1.10;;
39434;SDS011;66825;51.880;-0.518;2023-08-30T14:32:14;4.47;;;1.10;;
39434;SDS011;66825;51.880;-0.518;2023-08-30T14:34:40;4.80;;;1.33;;
39434;SDS011;66825;51.880;-0.518;2023-08-30T14:37:05;3.22;;;1.30;;
39434;SDS011;66825;51.880;-0.518;2023-08-30T14:39:31;2.97;;;1.23;;
39434;SDS011;66825;51.880;-0.518;2023-08-30T14:41:56;3.35;;;1.20;;
39434;SDS011;66825;51.880;-0.518;2023-08-30T14:44:21;6.70;;;1.52;;
39434;SDS011;66825;51.880;-0.518;2023-08-30T14:46:47;4.43;;;1.20;;